Time;durP1;ratioP1;P1;durP2;ratioP2;P2;SDS_P1;SDS_P2;PMS_P1;PMS_P2;Temp;Humidity;BMP_temperature;BMP_pressure;BME280_temperature;BME280_humidity;BME280_pressure;Samples;Min_cycle;Max_cycle;Signal;HPM_P1;HPM_P2
2022/08/20 00:00:56;;;;;;;3.03;2.38;;;;;;;26.08;50.40;99177.72;5106585;28;20054;-90
2022/08/20 00:03:29;;;;;;;1.65;1.55;;;;;;;26.22;50.49;99198.13;5106440;28;20486;-90
2022/08/20 00:05:59;;;;;;;3.00;2.35;;;;;;;26.03;50.76;99173.72;5087169;28;20028;-91
2022/08/20 00:08:26;;;;;;;4.28;3.17;;;;;;;25.79;51.04;99164.03;5078253;28;20108;-90
2022/08/20 00:10:53;;;;;;;3.08;2.25;;;;;;;26.07;51.25;99204.88;5091513;28;20032;-91
2022/08/20 00:13:28;;;;;;;4.32;2.85;;;;;;;25.59;52.15;99165.75;5081917;28;20051;-90
2022/08/20 00:15:54;;;;;;;2.50;2.30;;;;;;;25.70;52.26;99179.19;5058527;28;20032;-90
2022/08/20 00:18:21;;;;;;;2.33;1.73;;;;;;;25.84;52.53;99215.81;5077097;28;20038;-91
2022/08/20 00:20:50;;;;;;;4.00;2.65;;;;;;;25.64;52.74;99168.03;5086748;28;20073;-90
2022/08/20 00:23:17;;;;;;;3.70;2.40;;;;;;;25.70;52.80;99167.50;5080320;28;20031;-90
2022/08/20 00:25:44;;;;;;;2.45;1.67;;;;;;;26.01;52.71;99200.88;5110094;28;20035;-89
2022/08/20 00:28:11;;;;;;;2.45;1.48;;;;;;;25.90;51.96;99149.56;5092300;28;20099;-90
2022/08/20 00:30:41;;;;;;;3.90;2.33;;;;;;;26.06;51.72;99178.88;5107123;28;20036;-90
2022/08/20 00:33:10;;;;;;;4.25;3.83;;;;;;;25.96;51.92;99164.41;5096611;28;20031;-90
2022/08/20 00:35:40;;;;;;;2.70;2.38;;;;;;;26.04;52.13;99191.63;5091442;28;20032;-90
2022/08/20 00:38:05;;;;;;;9.52;3.67;;;;;;;25.83;52.53;99187.09;5109569;28;20112;-90
2022/08/20 00:40:42;;;;;;;2.22;1.98;;;;;;;25.76;52.36;99153.47;5088065;28;20039;-90
2022/08/20 00:43:25;;;;;;;5.22;2.58;;;;;;;25.82;52.69;99188.06;5076731;28;20528;-90
2022/08/20 00:45:54;;;;;;;3.05;2.08;;;;;;;25.83;52.71;99173.59;5070802;28;20525;-90
2022/08/20 00:48:20;;;;;;;3.47;2.83;;;;;;;25.60;53.15;99158.53;5100010;28;20040;-91
2022/08/20 00:50:46;;;;;;;2.70;1.95;;;;;;;25.48;53.60;99153.16;5071725;28;20131;-89
2022/08/20 00:53:12;;;;;;;2.72;2.50;;;;;;;25.48;54.06;99160.41;5096406;28;20038;-90
2022/08/20 00:55:38;;;;;;;3.17;2.35;;;;;;;25.61;53.94;99168.31;5110900;28;20023;-89
2022/08/20 00:58:08;;;;;;;2.17;1.98;;;;;;;25.48;53.91;99153.16;5101810;28;21067;-89
2022/08/20 01:00:40;;;;;;;4.43;4.03;;;;;;;25.52;53.81;99156.47;5104040;28;20044;-89
2022/08/20 01:03:09;;;;;;;3.50;2.33;;;;;;;25.62;54.31;99203.28;5081189;28;20051;-90
2022/08/20 01:05:40;;;;;;;3.13;2.83;;;;;;;25.43;54.66;99198.59;5098408;28;20036;-91
2022/08/20 01:08:06;;;;;;;2.72;2.53;;;;;;;25.46;54.45;99186.69;5073958;28;20066;-91
2022/08/20 01:10:37;;;;;;;4.80;3.35;;;;;;;25.55;54.50;99186.75;5091989;28;20036;-90
2022/08/20 01:13:10;;;;;;;2.55;2.35;;;;;;;25.47;54.42;99175.78;5083475;28;20429;-89
2022/08/20 01:15:41;;;;;;;2.38;2.00;;;;;;;25.57;54.16;99202.81;5068422;28;20042;-89
2022/08/20 01:18:12;;;;;;;4.38;3.33;;;;;;;25.47;53.92;99172.19;5087344;28;20053;-90
2022/08/20 01:21:01;;;;;;;2.50;2.30;;;;;;;25.61;53.20;99184.50;5090837;28;20040;-90
2022/08/20 01:23:33;;;;;;;3.10;2.03;;;;;;;25.62;53.58;99207.84;5091206;28;20055;-89
2022/08/20 01:26:13;;;;;;;1.98;1.85;;;;;;;25.55;53.95;99196.72;5090332;28;20028;-90
2022/08/20 01:28:51;;;;;;;3.17;1.88;;;;;;;25.38;53.93;99199.00;5089644;28;20032;-89
2022/08/20 01:31:20;;;;;;;2.90;2.60;;;;;;;25.09;53.97;99146.59;5104489;28;20035;-89
2022/08/20 01:33:47;;;;;;;2.75;2.53;;;;;;;25.04;54.58;99157.78;5089314;28;20032;-89
2022/08/20 01:36:14;;;;;;;5.32;3.70;;;;;;;24.88;55.60;99173.50;5109045;28;20043;-89
2022/08/20 01:38:41;;;;;;;2.00;1.75;;;;;;;24.32;56.71;99137.56;5090768;28;20524;-90
2022/08/20 01:41:24;;;;;;;6.50;3.45;;;;;;;24.57;57.35;99182.28;5071080;28;20031;-88
2022/08/20 01:43:55;;;;;;;21.15;1.52;;;;;;;24.54;56.73;99144.75;5093856;28;20035;-88
2022/08/20 01:46:49;;;;;;;1.75;1.60;;;;;;;24.46;57.35;99148.06;5079427;28;20052;-88
2022/08/20 01:49:42;;;;;;;5.47;3.22;;;;;;;24.46;57.33;99128.34;5086323;28;20086;-88
2022/08/20 01:52:11;;;;;;;2.63;1.63;;;;;;;24.62;57.36;99134.25;5108863;28;20028;-89
2022/08/20 01:54:37;;;;;;;4.50;3.05;;;;;;;24.86;57.65;99170.94;5109390;28;20081;-89
2022/08/20 01:57:09;;;;;;;2.95;2.40;;;;;;;24.56;58.23;99155.41;5108457;28;20032;-90
2022/08/20 01:59:34;;;;;;;1.92;1.45;;;;;;;24.66;58.13;99159.09;5098757;28;20047;-90
2022/08/20 02:02:01;;;;;;;2.78;2.58;;;;;;;24.95;57.63;99189.06;5076687;28;20029;-88
2022/08/20 02:04:26;;;;;;;5.38;3.55;;;;;;;24.90;57.40;99155.34;5067781;28;20123;-87
2022/08/20 02:06:58;;;;;;;5.13;2.35;;;;;;;24.97;57.09;99167.34;5066874;28;20193;-87
2022/08/20 02:09:26;;;;;;;3.90;3.17;;;;;;;24.82;57.88;99156.88;5091091;28;20037;-88
2022/08/20 02:11:52;;;;;;;4.05;3.65;;;;;;;24.84;57.60;99157.59;5087628;28;20043;-88
2022/08/20 02:14:17;;;;;;;3.30;2.47;;;;;;;24.94;57.44;99173.00;5090907;28;20027;-90
2022/08/20 02:16:49;;;;;;;2.55;1.63;;;;;;;25.05;57.23;99172.13;5089135;28;20604;-88
2022/08/20 02:19:26;;;;;;;6.38;3.55;;;;;;;24.98;57.08;99167.22;5070934;28;20126;-88
2022/08/20 02:21:57;;;;;;;2.00;1.80;;;;;;;24.86;57.42;99162.00;5087771;28;20028;-91
2022/08/20 02:24:23;;;;;;;9.45;3.13;;;;;;;24.62;57.54;99147.72;5069173;28;20036;-89
2022/08/20 02:26:49;;;;;;;1.67;1.58;;;;;;;24.79;57.27;99165.22;5087944;28;20024;-90
2022/08/20 02:29:15;;;;;;;1.85;1.52;;;;;;;24.83;56.97;99155.00;5088405;28;20118;-89
2022/08/20 02:31:43;;;;;;;3.92;2.30;;;;;;;24.98;56.38;99183.41;5096612;28;20119;-89
2022/08/20 02:34:11;;;;;;;2.33;1.60;;;;;;;24.64;55.61;99155.69;5108185;28;20027;-89
2022/08/20 02:36:39;;;;;;;1.83;1.58;;;;;;;24.64;54.68;99161.09;5108146;28;20042;-89
2022/08/20 02:39:06;;;;;;;1.63;1.35;;;;;;;24.65;53.92;99163.66;5100601;28;20042;-89
2022/08/20 02:41:33;;;;;;;1.92;1.70;;;;;;;24.62;53.77;99163.03;5068555;28;20036;-89
2022/08/20 02:43:59;;;;;;;2.13;1.75;;;;;;;24.67;53.72;99161.69;5086942;28;20035;-88
2022/08/20 02:46:27;;;;;;;2.38;2.00;;;;;;;24.44;53.87;99127.63;5106372;28;20578;-88
2022/08/20 02:48:53;;;;;;;1.88;1.60;;;;;;;24.79;53.77;99192.19;5107204;28;20560;-89
2022/08/20 02:51:18;;;;;;;2.30;1.58;;;;;;;24.64;53.50;99150.28;5106918;28;20110;-90
2022/08/20 02:53:44;;;;;;;2.28;2.10;;;;;;;24.64;53.54;99171.88;5108094;28;20119;-90
2022/08/20 02:56:10;;;;;;;2.35;1.77;;;;;;;24.38;54.08;99174.78;5091039;28;20482;-89
2022/08/20 02:58:37;;;;;;;2.35;2.13;;;;;;;24.40;54.50;99180.06;5069404;28;20763;-89
2022/08/20 03:01:05;;;;;;;1.75;1.65;;;;;;;24.38;55.28;99185.56;5069021;28;20075;-89
2022/08/20 03:03:31;;;;;;;3.00;2.30;;;;;;;24.19;54.90;99143.09;5086639;28;20042;-89
2022/08/20 03:05:58;;;;;;;2.33;1.75;;;;;;;24.45;54.77;99178.72;5100583;28;20033;-89
2022/08/20 03:08:25;;;;;;;2.72;2.47;;;;;;;24.15;54.99;99147.00;5106657;28;20039;-89
2022/08/20 03:10:51;;;;;;;4.13;2.75;;;;;;;24.31;54.14;99170.88;5107255;28;20490;-88
2022/08/20 03:13:18;;;;;;;2.47;2.10;;;;;;;24.11;53.94;99132.94;5099287;28;20047;-88
2022/08/20 03:15:47;;;;;;;4.18;3.08;;;;;;;24.04;53.90;99130.84;5094527;28;20048;-88
2022/08/20 03:18:14;;;;;;;2.15;1.92;;;;;;;24.20;53.68;99152.03;5105477;28;20084;-89
2022/08/20 03:20:41;;;;;;;4.38;2.40;;;;;;;24.23;54.02;99173.34;5107511;28;20114;-88
2022/08/20 03:23:06;;;;;;;3.55;2.47;;;;;;;23.86;54.26;99114.31;5088951;28;20084;-88
2022/08/20 03:25:32;;;;;;;2.17;1.85;;;;;;;24.28;53.99;99189.97;5107076;28;20024;-88
2022/08/20 03:27:58;;;;;;;2.28;2.08;;;;;;;24.02;53.78;99154.34;5091257;28;20497;-88
2022/08/20 03:30:26;;;;;;;1.23;1.13;;;;;;;24.15;53.95;99162.31;5103282;28;20040;-89
2022/08/20 03:32:53;;;;;;;4.32;2.88;;;;;;;24.10;54.07;99168.09;5094387;28;20555;-90
2022/08/20 03:35:21;;;;;;;3.00;2.63;;;;;;;24.17;53.75;99147.72;5086682;28;20028;-90
2022/08/20 03:37:47;;;;;;;2.33;1.85;;;;;;;24.12;53.73;99150.78;5068904;28;20399;-91
2022/08/20 03:40:17;;;;;;;3.50;2.20;;;;;;;24.05;53.63;99140.63;5101272;28;20100;-90
2022/08/20 03:42:43;;;;;;;2.88;2.13;;;;;;;24.23;53.32;99178.72;5100191;28;20040;-91
2022/08/20 03:45:11;;;;;;;3.42;2.47;;;;;;;24.17;53.61;99198.06;5087934;28;20144;-90
2022/08/20 03:47:38;;;;;;;1.77;1.67;;;;;;;23.95;53.77;99186.31;5087756;28;20060;-90
2022/08/20 03:50:06;;;;;;;1.95;1.80;;;;;;;24.08;53.22;99194.25;5093870;28;20521;-89
2022/08/20 03:52:32;;;;;;;3.30;2.95;;;;;;;23.65;53.02;99115.00;5070059;28;20177;-89
2022/08/20 03:54:57;;;;;;;2.70;2.13;;;;;;;23.97;52.63;99159.25;5072280;28;20119;-90
2022/08/20 03:57:24;;;;;;;5.25;2.38;;;;;;;24.16;52.49;99174.78;5072502;28;20047;-89
2022/08/20 03:59:50;;;;;;;2.15;1.92;;;;;;;24.22;52.85;99188.66;5090909;28;20064;-90
2022/08/20 04:02:16;;;;;;;2.05;1.92;;;;;;;24.04;52.31;99163.19;5090597;28;20032;-90
2022/08/20 04:04:42;;;;;;;2.70;2.13;;;;;;;23.98;51.85;99164.50;5091500;28;20032;-89
2022/08/20 04:07:24;;;;;;;4.03;2.35;;;;;;;24.16;52.14;99201.75;5091004;28;20031;-89
2022/08/20 04:09:55;;;;;;;12.35;3.38;;;;;;;23.87;52.42;99169.91;5082583;28;20474;-90
2022/08/20 04:12:24;;;;;;;1.98;1.77;;;;;;;24.22;52.04;99179.69;5101288;28;20529;-90
2022/08/20 04:14:50;;;;;;;2.63;2.25;;;;;;;24.32;51.27;99161.81;5055197;28;20120;-91
2022/08/20 04:17:17;;;;;;;3.30;2.13;;;;;;;24.67;50.49;99180.56;5072204;28;20028;-91
2022/08/20 04:19:44;;;;;;;1.98;1.35;;;;;;;24.73;50.48;99181.03;5098662;28;20036;-90
2022/08/20 04:22:12;;;;;;;3.33;2.45;;;;;;;24.81;50.50;99168.63;5103652;28;20034;-90
2022/08/20 04:24:40;;;;;;;3.53;2.55;;;;;;;24.79;50.73;99164.34;5068662;28;20044;-91
2022/08/20 04:27:07;;;;;;;3.25;2.72;;;;;;;25.03;51.06;99183.03;5072555;28;20467;-90
2022/08/20 04:29:34;;;;;;;2.38;2.17;;;;;;;25.06;51.16;99184.63;5096631;28;20119;-90
2022/08/20 04:32:01;;;;;;;1.80;1.70;;;;;;;24.94;52.60;99181.94;5102202;28;20114;-89
2022/08/20 04:34:28;;;;;;;3.95;2.97;;;;;;;24.93;52.06;99150.59;5091799;28;20092;-89
2022/08/20 04:36:54;;;;;;;4.63;2.97;;;;;;;25.07;52.63;99170.13;5109996;28;20036;-88
2022/08/20 04:39:19;;;;;;;3.08;2.67;;;;;;;25.27;52.65;99176.56;5086032;28;20059;-89
2022/08/20 04:41:45;;;;;;;16.00;3.08;;;;;;;25.45;52.61;99183.13;5090548;28;20783;-89
2022/08/20 04:44:11;;;;;;;2.35;2.15;;;;;;;25.58;52.75;99166.75;5106276;28;20122;-88
2022/08/20 04:46:38;;;;;;;2.05;1.85;;;;;;;25.97;52.46;99190.44;5101136;28;20043;-88
2022/08/20 04:49:05;;;;;;;3.75;2.10;;;;;;;25.97;52.50;99196.69;5107668;28;20091;-88
2022/08/20 04:51:31;;;;;;;1.50;1.13;;;;;;;26.16;50.69;99178.91;5088950;28;20047;-89
2022/08/20 04:53:57;;;;;;;3.25;2.95;;;;;;;26.20;50.37;99178.50;5089792;28;20039;-90
2022/08/20 04:56:29;;;;;;;11.02;2.20;;;;;;;26.39;49.91;99187.66;5089966;28;20593;-90
2022/08/20 04:59:00;;;;;;;3.90;2.42;;;;;;;26.23;50.37;99156.59;5090285;28;20036;-89
2022/08/20 05:01:27;;;;;;;3.53;2.67;;;;;;;26.61;50.86;99202.81;5071459;28;20040;-88
2022/08/20 05:03:53;;;;;;;2.63;2.13;;;;;;;26.56;50.67;99173.50;5069420;28;20660;-91
2022/08/20 05:06:22;;;;;;;1.45;1.33;;;;;;;26.50;50.83;99181.31;5081405;28;20143;-88
2022/08/20 05:08:47;;;;;;;2.20;1.67;;;;;;;26.89;50.33;99184.13;5074651;28;20039;-88
2022/08/20 05:11:13;;;;;;;3.75;1.73;;;;;;;26.95;48.36;99175.44;5095787;28;20582;-90
2022/08/20 05:13:40;;;;;;;4.88;2.55;;;;;;;27.17;47.60;99185.16;5089412;28;20027;-89
2022/08/20 05:16:06;;;;;;;4.10;3.10;;;;;;;27.04;47.97;99158.38;5082073;28;20565;-90
2022/08/20 05:18:33;;;;;;;4.55;2.97;;;;;;;27.17;49.39;99158.06;5070920;28;20459;-90
2022/08/20 05:21:04;;;;;;;15.93;2.83;;;;;;;27.16;50.14;99145.56;5089229;28;20143;-87
2022/08/20 05:23:35;;;;;;;3.33;2.15;;;;;;;26.99;50.08;99144.41;5098175;28;20029;-90
2022/08/20 05:26:06;;;;;;;6.00;4.28;;;;;;;27.10;50.21;99111.78;5074182;28;20122;-90
2022/08/20 05:28:33;;;;;;;1.88;1.48;;;;;;;27.46;49.97;99163.50;5091325;28;20039;-93
2022/08/20 05:31:00;;;;;;;3.03;2.65;;;;;;;27.68;47.50;99154.22;5089799;28;20064;-88
2022/08/20 05:33:28;;;;;;;6.30;2.65;;;;;;;28.05;46.52;99209.47;5088874;28;20058;-87
2022/08/20 05:35:56;;;;;;;3.15;2.72;;;;;;;28.05;45.82;99193.22;5062735;28;20422;-86
2022/08/20 05:38:27;;;;;;;2.20;2.00;;;;;;;28.07;45.48;99152.41;5068449;28;20028;-86
2022/08/20 05:40:53;;;;;;;4.75;2.50;;;;;;;28.41;45.55;99187.97;5066895;28;20056;-86
2022/08/20 05:43:21;;;;;;;3.05;2.72;;;;;;;28.38;44.52;99159.28;5067336;28;20039;-85
2022/08/20 05:45:51;;;;;;;3.25;2.10;;;;;;;28.65;43.44;99168.44;5074127;28;20047;-87
2022/08/20 05:48:20;;;;;;;3.42;1.80;;;;;;;29.07;42.92;99184.16;5068396;28;20032;-85
2022/08/20 05:50:50;;;;;;;2.17;1.92;;;;;;;29.21;41.98;99198.22;5066145;28;20502;-85
2022/08/20 05:53:20;;;;;;;1.67;1.58;;;;;;;29.20;41.65;99178.38;5070753;28;20040;-86
2022/08/20 05:55:46;;;;;;;1.75;1.60;;;;;;;29.56;41.33;99150.31;5048363;28;20044;-85
2022/08/20 05:58:21;;;;;;;4.45;3.50;;;;;;;29.55;42.89;99190.25;5066210;28;20028;-87
2022/08/20 06:00:47;;;;;;;1.50;1.20;;;;;;;29.33;42.94;99169.81;5066772;28;20426;-86
2022/08/20 06:05:57;;;;;;;2.28;2.00;;;;;;;30.18;39.73;99189.16;5102206;28;20043;-86
2022/08/20 06:08:23;;;;;;;2.97;1.95;;;;;;;30.07;38.74;99181.25;5089529;28;20035;-85
2022/08/20 06:10:49;;;;;;;5.35;2.30;;;;;;;29.92;38.64;99169.28;5079883;28;20422;-85
2022/08/20 06:13:14;;;;;;;1.98;1.77;;;;;;;30.04;38.38;99170.72;5086112;28;20032;-86
2022/08/20 06:15:40;;;;;;;1.88;1.40;;;;;;;30.12;38.42;99154.47;5086521;28;20115;-86
2022/08/20 06:18:07;;;;;;;1.45;1.35;;;;;;;30.62;38.13;99192.81;5071974;28;20437;-85
2022/08/20 06:20:34;;;;;;;5.10;2.28;;;;;;;30.85;37.89;99190.31;5078581;28;20085;-85
2022/08/20 06:23:00;;;;;;;2.05;1.85;;;;;;;30.65;37.69;99168.81;5080287;28;20040;-85
2022/08/20 06:25:26;;;;;;;2.90;2.00;;;;;;;30.94;37.74;99174.84;5084102;28;20130;-85
2022/08/20 06:27:51;;;;;;;2.85;1.92;;;;;;;31.04;38.17;99184.59;5072700;28;20131;-88
2022/08/20 06:30:17;;;;;;;3.00;2.50;;;;;;;31.01;37.47;99167.75;5104686;28;20052;-88
2022/08/20 06:32:43;;;;;;;22.70;2.58;;;;;;;31.21;37.23;99169.13;5079398;28;20265;-88
2022/08/20 06:35:09;;;;;;;3.00;2.30;;;;;;;31.34;36.92;99192.28;5065260;28;20031;-86
2022/08/20 06:37:38;;;;;;;3.28;2.55;;;;;;;31.71;36.96;99197.25;5082246;28;20114;-85
2022/08/20 06:40:06;;;;;;;2.95;2.33;;;;;;;32.01;36.03;99197.56;5087930;28;20709;-86
2022/08/20 06:42:32;;;;;;;2.95;2.13;;;;;;;32.19;36.09;99188.34;5088854;28;20086;-84
2022/08/20 06:44:59;;;;;;;3.30;2.80;;;;;;;32.01;35.75;99172.16;5086821;28;20067;-86
2022/08/20 06:47:25;;;;;;;2.45;1.95;;;;;;;31.71;36.55;99160.97;5086820;28;20426;-81
2022/08/20 06:49:50;;;;;;;6.93;3.63;;;;;;;31.85;36.09;99171.16;5086579;28;20039;-80
2022/08/20 06:52:16;;;;;;;4.40;2.70;;;;;;;32.24;35.59;99150.47;5099402;28;20028;-81
2022/08/20 06:54:43;;;;;;;6.20;2.53;;;;;;;32.60;36.40;99172.66;5089617;28;20506;-81
2022/08/20 06:57:09;;;;;;;3.47;2.28;;;;;;;32.44;35.60;99154.50;5105855;28;20047;-81
2022/08/20 06:59:35;;;;;;;4.05;2.78;;;;;;;32.44;35.75;99164.53;5087376;28;20032;-81
2022/08/20 07:02:01;;;;;;;2.97;1.83;;;;;;;32.88;35.47;99172.22;5083805;28;20091;-82
2022/08/20 07:04:26;;;;;;;5.32;2.17;;;;;;;33.44;34.68;99168.44;5085207;28;20064;-82
2022/08/20 07:06:54;;;;;;;2.15;1.95;;;;;;;33.49;34.55;99187.84;5079448;28;20543;-83
2022/08/20 07:09:20;;;;;;;5.10;2.97;;;;;;;33.44;34.89;99158.34;5089122;28;20040;-82
2022/08/20 07:11:47;;;;;;;2.42;2.20;;;;;;;33.43;34.52;99181.25;5104117;28;20032;-82
2022/08/20 07:14:13;;;;;;;9.23;3.35;;;;;;;33.72;33.91;99183.25;5086045;28;20089;-83
2022/08/20 07:16:39;;;;;;;2.55;1.92;;;;;;;33.97;32.85;99174.81;5098379;28;20054;-83
2022/08/20 07:19:05;;;;;;;1.98;1.67;;;;;;;33.66;33.27;99169.41;5094914;28;20490;-84
2022/08/20 07:21:31;;;;;;;4.28;2.35;;;;;;;33.81;34.00;99148.44;5091620;28;20039;-81
2022/08/20 07:23:57;;;;;;;3.78;2.03;;;;;;;33.59;33.15;99136.50;5097030;28;20038;-81
2022/08/20 07:26:22;;;;;;;2.10;1.90;;;;;;;33.80;32.59;99165.03;5105134;28;20028;-83
2022/08/20 07:28:48;;;;;;;4.03;2.85;;;;;;;34.11;32.52;99147.63;5104786;28;20064;-81
2022/08/20 07:33:58;;;;;;;4.78;2.25;;;;;;;34.30;32.17;99154.47;5111547;28;20088;-82
2022/08/20 07:36:24;;;;;;;2.80;1.98;;;;;;;34.64;32.52;99145.63;5110786;28;20481;-81
2022/08/20 07:38:51;;;;;;;3.33;2.58;;;;;;;34.78;32.29;99165.81;5110406;28;20032;-82
2022/08/20 07:41:18;;;;;;;3.67;2.80;;;;;;;34.10;33.67;99141.31;5111587;28;20104;-81
2022/08/20 07:43:44;;;;;;;2.53;2.20;;;;;;;34.73;31.98;99149.09;5110683;28;20035;-83
2022/08/20 07:46:15;;;;;;;4.88;3.20;;;;;;;34.46;32.63;99139.72;5109729;28;20078;-80
2022/08/20 07:48:45;;;;;;;3.65;2.95;;;;;;;34.66;32.07;99131.75;5110525;28;20501;-81
2022/08/20 07:51:13;;;;;;;3.13;1.98;;;;;;;34.96;32.15;99132.53;5110241;28;20104;-81
2022/08/20 07:53:39;;;;;;;2.50;1.67;;;;;;;34.67;31.26;99127.97;5110225;28;20032;-83
2022/08/20 07:56:12;;;;;;;2.25;1.52;;;;;;;35.14;30.90;99152.13;5110011;28;20779;-82
2022/08/20 07:58:41;;;;;;;2.60;2.00;;;;;;;34.89;31.19;99120.66;5110324;28;20531;-82
2022/08/20 08:01:07;;;;;;;2.38;1.45;;;;;;;35.08;30.24;99133.72;5110410;28;20031;-82
2022/08/20 08:03:33;;;;;;;2.85;2.10;;;;;;;35.59;31.36;99146.44;5110607;28;20097;-82
2022/08/20 08:05:59;;;;;;;1.80;1.63;;;;;;;35.64;31.70;99132.94;5110513;28;20036;-84
2022/08/20 08:08:27;;;;;;;3.95;2.40;;;;;;;35.19;31.88;99101.31;5091810;28;20046;-83
2022/08/20 08:10:58;;;;;;;2.50;1.75;;;;;;;34.37;34.64;99112.44;5110791;28;20028;-85
2022/08/20 08:13:26;;;;;;;5.20;2.90;;;;;;;34.71;32.80;99096.41;5110901;28;20036;-86
2022/08/20 08:15:56;;;;;;;3.08;2.50;;;;;;;34.73;33.92;99092.44;5110512;28;20828;-83
2022/08/20 08:18:26;;;;;;;2.33;1.58;;;;;;;35.50;32.22;99103.75;5110325;28;20536;-85
2022/08/20 08:20:53;;;;;;;2.72;2.30;;;;;;;35.64;31.56;99090.97;5109961;28;20417;-83
2022/08/20 08:23:22;;;;;;;3.45;2.72;;;;;;;35.45;32.38;99087.91;5110418;28;20031;-83
2022/08/20 08:25:51;;;;;;;8.40;3.92;;;;;;;35.11;32.60;99075.78;5110752;28;20035;-84
2022/08/20 08:28:18;;;;;;;2.85;2.28;;;;;;;34.79;33.82;99097.16;5110100;28;20065;-84
2022/08/20 08:30:45;;;;;;;7.18;4.25;;;;;;;35.56;32.79;99099.34;5110160;28;20100;-83
2022/08/20 08:33:29;;;;;;;2.58;1.95;;;;;;;35.92;32.06;99077.25;5109900;28;20035;-82
2022/08/20 08:35:57;;;;;;;4.43;2.13;;;;;;;35.77;31.73;99066.41;5108033;28;20062;-82
2022/08/20 08:38:24;;;;;;;2.92;2.42;;;;;;;35.53;31.96;99077.81;5087856;28;20383;-82
2022/08/20 08:40:52;;;;;;;3.13;1.98;;;;;;;35.91;31.11;99080.19;5089022;28;20099;-83
2022/08/20 08:43:21;;;;;;;6.25;3.72;;;;;;;36.14;30.09;99077.16;5088911;28;20032;-82
2022/08/20 08:45:55;;;;;;;3.70;2.85;;;;;;;35.50;31.41;99041.53;5088566;28;20052;-81
2022/08/20 08:48:27;;;;;;;4.30;2.92;;;;;;;35.75;31.22;99068.47;5088907;28;20032;-82
2022/08/20 08:50:57;;;;;;;2.45;1.92;;;;;;;35.70;31.02;99043.56;5088677;28;20554;-82
2022/08/20 08:53:33;;;;;;;4.38;3.28;;;;;;;36.10;31.30;99060.25;5089373;28;20024;-84
2022/08/20 08:55:59;;;;;;;2.72;2.05;;;;;;;35.46;31.82;99037.47;5089142;28;20046;-83
2022/08/20 08:58:26;;;;;;;2.83;2.33;;;;;;;35.75;30.64;99041.03;5089471;28;20036;-83
2022/08/20 09:00:52;;;;;;;3.45;2.08;;;;;;;35.66;31.36;99062.28;5089224;28;20028;-83
2022/08/20 09:03:28;;;;;;;2.42;1.85;;;;;;;35.64;31.74;99047.09;5088606;28;20115;-82
2022/08/20 09:05:58;;;;;;;2.85;1.88;;;;;;;35.84;32.27;99028.88;5088843;28;20794;-83
2022/08/20 09:08:29;;;;;;;3.25;1.73;;;;;;;36.24;31.10;99030.09;5089225;28;20055;-83
2022/08/20 09:11:00;;;;;;;3.33;2.42;;;;;;;36.30;30.86;99034.78;5088928;28;20028;-85
2022/08/20 09:13:26;;;;;;;2.17;1.73;;;;;;;36.46;30.19;99015.22;5088540;28;20024;-82
2022/08/20 09:15:51;;;;;;;2.25;1.58;;;;;;;36.38;29.73;99005.25;5087683;28;20123;-84
2022/08/20 09:18:17;;;;;;;1.45;1.35;;;;;;;36.75;29.68;99026.94;5090076;28;20024;-84
2022/08/20 09:20:42;;;;;;;2.65;1.98;;;;;;;36.76;29.83;99016.78;5093459;28;20471;-84
2022/08/20 09:23:07;;;;;;;2.28;1.92;;;;;;;36.19;30.32;99037.06;5095631;28;20123;-83
2022/08/20 09:25:33;;;;;;;3.38;2.33;;;;;;;36.05;31.51;98999.63;5070180;28;20035;-84
2022/08/20 09:27:59;;;;;;;16.98;13.52;;;;;;;36.50;31.25;99015.63;5087906;28;20122;-84
2022/08/20 09:30:24;;;;;;;6.55;3.58;;;;;;;36.20;32.61;98994.81;5087814;28;20544;-83
2022/08/20 09:32:50;;;;;;;1.98;1.88;;;;;;;36.52;31.12;99017.13;5088611;28;20028;-83
2022/08/20 09:35:16;;;;;;;17.52;15.73;;;;;;;36.02;30.94;99000.03;5088837;28;20501;-83
2022/08/20 09:37:42;;;;;;;116.82;104.18;;;;;;;36.37;30.41;98989.84;5088743;28;20046;-85
2022/08/20 09:40:08;;;;;;;52.30;39.60;;;;;;;36.78;29.52;98977.06;5088534;28;20448;-83
2022/08/20 09:42:35;;;;;;;53.47;47.63;;;;;;;36.99;30.17;99010.88;5088399;28;20421;-83
2022/08/20 09:45:01;;;;;;;175.48;143.50;;;;;;;36.71;30.60;98982.50;5087651;28;20031;-83
2022/08/20 09:47:26;;;;;;;33.88;24.73;;;;;;;36.46;29.65;98990.50;5105002;28;20047;-82
2022/08/20 09:49:53;;;;;;;2.38;1.90;;;;;;;36.53;29.34;98971.28;5066819;28;20024;-83
2022/08/20 09:52:28;;;;;;;2.60;1.85;;;;;;;36.57;29.55;98972.56;5104783;28;20058;-82
2022/08/20 09:54:58;;;;;;;2.47;2.10;;;;;;;36.52;29.57;98977.84;5099126;28;20047;-83
2022/08/20 09:57:24;;;;;;;2.97;1.90;;;;;;;36.61;30.24;98960.09;5087666;28;20032;-84
2022/08/20 09:59:53;;;;;;;3.92;2.78;;;;;;;36.23;30.09;98952.41;5088119;28;20030;-83
2022/08/20 10:02:19;;;;;;;1.98;1.73;;;;;;;36.32;30.04;98956.69;5069794;28;20440;-83
2022/08/20 10:04:45;;;;;;;2.88;2.03;;;;;;;36.66;29.63;98965.81;5104608;28;20085;-84
2022/08/20 10:07:11;;;;;;;3.20;2.17;;;;;;;36.09;29.20;98951.53;5088226;28;20110;-84
2022/08/20 10:09:37;;;;;;;4.20;2.10;;;;;;;36.19;29.85;98943.75;5074981;28;20191;-82
2022/08/20 10:12:03;;;;;;;1.48;1.10;;;;;;;35.85;29.55;98945.53;5101320;28;20043;-82
2022/08/20 10:14:29;;;;;;;1.90;1.27;;;;;;;36.17;28.99;98947.75;5062689;28;20433;-86
2022/08/20 10:16:56;;;;;;;2.30;1.65;;;;;;;36.54;27.57;98931.78;5067245;28;20027;-82
2022/08/20 10:19:22;;;;;;;3.90;1.65;;;;;;;36.58;27.99;98944.06;5067196;28;20044;-81
2022/08/20 10:21:50;;;;;;;1.80;1.30;;;;;;;36.47;27.79;98917.19;5086913;28;20024;-83
2022/08/20 10:24:16;;;;;;;2.65;1.23;;;;;;;36.21;28.54;98933.41;5093692;28;20032;-83
2022/08/20 10:26:42;;;;;;;2.20;1.70;;;;;;;36.50;28.98;98920.38;5101874;28;20544;-81
2022/08/20 10:29:08;;;;;;;1.98;1.40;;;;;;;36.66;27.88;98897.13;5095401;28;20027;-83
2022/08/20 10:31:34;;;;;;;1.90;1.38;;;;;;;36.57;27.86;98925.88;5106992;28;20035;-84
2022/08/20 10:33:59;;;;;;;1.58;0.95;;;;;;;36.11;27.62;98927.44;5107610;28;20887;-83
2022/08/20 10:36:25;;;;;;;1.95;1.48;;;;;;;36.22;27.93;98915.03;5079383;28;20032;-82
2022/08/20 10:38:50;;;;;;;1.90;1.23;;;;;;;36.06;27.64;98897.06;5105673;28;20028;-82
2022/08/20 10:41:16;;;;;;;2.63;1.65;;;;;;;36.25;27.71;98922.00;5104542;28;20034;-82
2022/08/20 10:43:42;;;;;;;2.13;1.73;;;;;;;36.17;27.85;98925.78;5105162;28;20043;-83
2022/08/20 10:46:08;;;;;;;1.58;0.95;;;;;;;36.15;27.78;98887.56;5097488;28;20052;-85
2022/08/20 10:48:34;;;;;;;1.80;1.40;;;;;;;36.23;27.55;98870.06;5087211;28;20066;-84
2022/08/20 10:50:59;;;;;;;3.55;1.83;;;;;;;36.43;27.71;98891.22;5086060;28;20034;-84
2022/08/20 10:53:25;;;;;;;1.77;1.35;;;;;;;36.43;27.55;98872.84;5074803;28;20043;-84
2022/08/20 10:55:53;;;;;;;2.30;1.55;;;;;;;36.66;27.22;98893.56;5086997;28;20024;-83
2022/08/20 10:58:18;;;;;;;2.08;1.25;;;;;;;36.46;27.02;98880.66;5066330;28;20047;-84
2022/08/20 11:00:45;;;;;;;2.13;1.70;;;;;;;36.28;26.85;98885.94;5068667;28;21052;-84
2022/08/20 11:03:11;;;;;;;1.55;1.27;;;;;;;36.36;27.32;98892.06;5077451;28;20036;-85
2022/08/20 11:05:37;;;;;;;1.52;1.33;;;;;;;36.62;27.47;98859.31;5068035;28;20496;-84
2022/08/20 11:08:03;;;;;;;1.77;1.25;;;;;;;37.11;27.24;98882.75;5068507;28;20033;-85
2022/08/20 11:10:32;;;;;;;2.42;1.80;;;;;;;36.83;26.69;98866.53;5073127;28;20065;-85
2022/08/20 11:12:58;;;;;;;1.83;1.00;;;;;;;36.67;26.74;98873.25;5071006;28;20031;-84
2022/08/20 11:15:24;;;;;;;1.85;1.48;;;;;;;36.99;26.43;98867.97;5086689;28;20145;-84
2022/08/20 11:17:50;;;;;;;3.53;1.58;;;;;;;36.96;26.43;98851.91;5086562;28;20480;-84
2022/08/20 11:20:18;;;;;;;1.13;0.68;;;;;;;37.09;26.49;98871.09;5087642;28;20479;-82
2022/08/20 11:22:44;;;;;;;3.38;1.70;;;;;;;36.78;26.13;98842.44;5068478;28;20051;-83
2022/08/20 11:25:09;;;;;;;1.33;1.15;;;;;;;36.61;26.42;98863.97;5088134;28;20032;-81
2022/08/20 11:27:43;;;;;;;1.27;1.17;;;;;;;36.56;26.56;98848.16;5086842;28;20043;-84
2022/08/20 11:30:13;;;;;;;2.03;1.45;;;;;;;36.48;27.06;98820.03;5086986;28;20133;-83
2022/08/20 11:32:39;;;;;;;1.85;1.52;;;;;;;36.74;26.01;98852.16;5094647;28;20043;-83
2022/08/20 11:35:05;;;;;;;2.22;2.03;;;;;;;36.85;26.43;98825.94;5105960;28;20476;-82
2022/08/20 11:37:32;;;;;;;2.22;1.73;;;;;;;36.80;25.46;98795.53;5088966;28;20075;-83
2022/08/20 11:39:57;;;;;;;1.30;0.88;;;;;;;37.18;25.33;98816.75;5087910;28;20548;-84